sensor_id;sensor_type;location;lat;lon;timestamp;temperature;humidity
4451;DHT22;2238;50.180;9.230;2023-03-01T00:02:22;-0.80;99.90
4451;DHT22;2238;50.180;9.230;2023-03-01T00:05:22;-0.70;99.90
4451;DHT22;2238;50.180;9.230;2023-03-01T00:08:23;-0.90;99.90
4451;DHT22;2238;50.180;9.230;2023-03-01T00:11:26;-1.00;99.90
4451;DHT22;2238;50.180;9.230;2023-03-01T00:14:27;-0.90;99.90
4451;DHT22;2238;50.180;9.230;2023-03-01T00:17:27;-1.00;99.90
4451;DHT22;2238;50.180;9.230;2023-03-01T00:20:29;-1.00;99.90
4451;DHT22;2238;50.180;9.230;2023-03-01T00:23:29;-1.00;99.90
4451;DHT22;2238;50.180;9.230;2023-03-01T00:26:30;-0.90;99.90
4451;DHT22;2238;50.180;9.230;2023-03-01T00:29:30;-0.80;99.90
4451;DHT22;2238;50.180;9.230;2023-03-01T00:32:31;-0.90;99.90
4451;DHT22;2238;50.180;9.230;2023-03-01T00:35:35;-0.70;99.90
4451;DHT22;2238;50.180;9.230;2023-03-01T00:38:40;-0.40;99.90
4451;DHT22;2238;50.180;9.230;2023-03-01T00:41:42;-0.40;99.90
4451;DHT22;2238;50.180;9.230;2023-03-01T00:44:42;-0.60;99.90
4451;DHT22;2238;50.180;9.230;2023-03-01T00:47:43;-0.80;99.90
4451;DHT22;2238;50.180;9.230;2023-03-01T00:50:44;-0.70;99.90
4451;DHT22;2238;50.180;9.230;2023-03-01T00:53:45;-0.60;99.90
4451;DHT22;2238;50.180;9.230;2023-03-01T00:56:46;-0.90;99.90
4451;DHT22;2238;50.180;9.230;2023-03-01T00:59:46;-0.90;99.90
4451;DHT22;2238;50.180;9.230;2023-03-01T01:02:47;-0.80;99.90
4451;DHT22;2238;50.180;9.230;2023-03-01T01:05:48;-0.70;99.90
4451;DHT22;2238;50.180;9.230;2023-03-01T01:08:49;-0.80;99.90
4451;DHT22;2238;50.180;9.230;2023-03-01T01:11:51;-0.60;99.90
4451;DHT22;2238;50.180;9.230;2023-03-01T01:14:51;-0.70;99.90
4451;DHT22;2238;50.180;9.230;2023-03-01T01:17:52;-0.70;99.90
4451;DHT22;2238;50.180;9.230;2023-03-01T01:20:53;-0.80;99.90
4451;DHT22;2238;50.180;9.230;2023-03-01T01:23:55;-0.80;99.90
4451;DHT22;2238;50.180;9.230;2023-03-01T01:26:55;-0.80;99.90
4451;DHT22;2238;50.180;9.230;2023-03-01T01:29:56;-0.90;99.90
4451;DHT22;2238;50.180;9.230;2023-03-01T01:32:56;-0.80;99.90
4451;DHT22;2238;50.180;9.230;2023-03-01T01:35:57;-0.90;99.90
4451;DHT22;2238;50.180;9.230;2023-03-01T01:38:58;-0.90;99.90
4451;DHT22;2238;50.180;9.230;2023-03-01T01:42:00;-1.00;99.90
4451;DHT22;2238;50.180;9.230;2023-03-01T01:45:34;-0.90;99.90
4451;DHT22;2238;50.180;9.230;2023-03-01T01:48:46;-0.70;99.90
4451;DHT22;2238;50.180;9.230;2023-03-01T01:51:48;-0.80;99.90
4451;DHT22;2238;50.180;9.230;2023-03-01T01:55:00;-0.90;99.90
4451;DHT22;2238;50.180;9.230;2023-03-01T01:58:04;-0.90;99.90
4451;DHT22;2238;50.180;9.230;2023-03-01T02:01:06;-0.70;99.90
4451;DHT22;2238;50.180;9.230;2023-03-01T02:04:07;-0.70;99.90
4451;DHT22;2238;50.180;9.230;2023-03-01T02:10:16;-0.70;99.90
4451;DHT22;2238;50.180;9.230;2023-03-01T02:13:17;-0.60;99.90
4451;DHT22;2238;50.180;9.230;2023-03-01T02:16:17;-0.70;99.90
4451;DHT22;2238;50.180;9.230;2023-03-01T02:23:03;-0.70;99.90
4451;DHT22;2238;50.180;9.230;2023-03-01T02:26:23;-0.60;99.90
4451;DHT22;2238;50.180;9.230;2023-03-01T02:29:26;-0.70;99.90
4451;DHT22;2238;50.180;9.230;2023-03-01T02:32:28;-0.70;99.90
4451;DHT22;2238;50.180;9.230;2023-03-01T02:35:31;-0.70;99.90
4451;DHT22;2238;50.180;9.230;2023-03-01T02:38:32;-0.60;99.90
4451;DHT22;2238;50.180;9.230;2023-03-01T02:41:37;-0.50;99.90
4451;DHT22;2238;50.180;9.230;2023-03-01T02:44:38;-0.60;99.90
4451;DHT22;2238;50.180;9.230;2023-03-01T02:47:39;-0.60;99.90
4451;DHT22;2238;50.180;9.230;2023-03-01T02:57:18;-0.80;99.90
4451;DHT22;2238;50.180;9.230;2023-03-01T03:00:21;-0.70;99.90
4451;DHT22;2238;50.180;9.230;2023-03-01T03:03:23;-0.80;99.90
4451;DHT22;2238;50.180;9.230;2023-03-01T03:06:23;-0.80;99.90
4451;DHT22;2238;50.180;9.230;2023-03-01T03:09:24;-0.90;99.90
4451;DHT22;2238;50.180;9.230;2023-03-01T03:12:25;-0.90;99.90
4451;DHT22;2238;50.180;9.230;2023-03-01T03:15:26;-0.80;99.90
4451;DHT22;2238;50.180;9.230;2023-03-01T03:18:27;-0.80;99.90
4451;DHT22;2238;50.180;9.230;2023-03-01T03:21:28;-0.80;99.90
4451;DHT22;2238;50.180;9.230;2023-03-01T03:24:28;-0.60;99.90
4451;DHT22;2238;50.180;9.230;2023-03-01T03:27:38;-0.80;99.90
4451;DHT22;2238;50.180;9.230;2023-03-01T03:30:40;-0.80;99.90
4451;DHT22;2238;50.180;9.230;2023-03-01T03:33:41;-0.80;99.90
4451;DHT22;2238;50.180;9.230;2023-03-01T03:36:42;-1.00;99.90
4451;DHT22;2238;50.180;9.230;2023-03-01T03:39:42;-1.00;99.90
4451;DHT22;2238;50.180;9.230;2023-03-01T03:42:43;-0.90;99.90
4451;DHT22;2238;50.180;9.230;2023-03-01T03:45:44;-0.90;99.90
4451;DHT22;2238;50.180;9.230;2023-03-01T03:48:45;-1.00;99.90
4451;DHT22;2238;50.180;9.230;2023-03-01T03:51:46;-1.00;99.90
4451;DHT22;2238;50.180;9.230;2023-03-01T03:54:47;-1.00;99.90
4451;DHT22;2238;50.180;9.230;2023-03-01T03:57:48;-1.10;99.90
4451;DHT22;2238;50.180;9.230;2023-03-01T04:00:56;-1.10;99.90
4451;DHT22;2238;50.180;9.230;2023-03-01T04:03:57;-1.20;99.90
4451;DHT22;2238;50.180;9.230;2023-03-01T04:07:04;-1.20;99.90
4451;DHT22;2238;50.180;9.230;2023-03-01T04:10:07;-1.20;99.90
4451;DHT22;2238;50.180;9.230;2023-03-01T04:13:11;-1.10;99.90
4451;DHT22;2238;50.180;9.230;2023-03-01T04:16:11;-1.20;99.90
4451;DHT22;2238;50.180;9.230;2023-03-01T04:19:12;-1.20;99.90
4451;DHT22;2238;50.180;9.230;2023-03-01T04:22:13;-1.20;99.90
4451;DHT22;2238;50.180;9.230;2023-03-01T04:25:19;-1.30;99.90
4451;DHT22;2238;50.180;9.230;2023-03-01T04:28:21;-1.20;99.90
4451;DHT22;2238;50.180;9.230;2023-03-01T04:31:24;-1.10;99.90
4451;DHT22;2238;50.180;9.230;2023-03-01T04:34:24;-1.30;99.90
4451;DHT22;2238;50.180;9.230;2023-03-01T04:37:27;-1.20;99.90
4451;DHT22;2238;50.180;9.230;2023-03-01T04:40:27;-1.20;99.90
4451;DHT22;2238;50.180;9.230;2023-03-01T04:43:28;-1.20;99.90
4451;DHT22;2238;50.180;9.230;2023-03-01T04:46:29;-1.10;99.90
4451;DHT22;2238;50.180;9.230;2023-03-01T04:49:29;-0.10;99.90
4451;DHT22;2238;50.180;9.230;2023-03-01T04:52:30;-1.20;99.90
4451;DHT22;2238;50.180;9.230;2023-03-01T04:55:32;-1.20;99.90
4451;DHT22;2238;50.180;9.230;2023-03-01T04:58:33;-1.00;99.90
4451;DHT22;2238;50.180;9.230;2023-03-01T05:01:34;-1.10;99.90
4451;DHT22;2238;50.180;9.230;2023-03-01T05:04:35;-1.10;99.90
4451;DHT22;2238;50.180;9.230;2023-03-01T05:07:36;-1.10;99.90
4451;DHT22;2238;50.180;9.230;2023-03-01T05:10:36;-1.00;99.90
4451;DHT22;2238;50.180;9.230;2023-03-01T05:13:39;-1.10;99.90
4451;DHT22;2238;50.180;9.230;2023-03-01T05:16:40;-1.10;99.90
4451;DHT22;2238;50.180;9.230;2023-03-01T05:19:40;-1.10;99.90
4451;DHT22;2238;50.180;9.230;2023-03-01T05:22:43;-1.00;99.90
4451;DHT22;2238;50.180;9.230;2023-03-01T05:25:44;-1.00;99.90
4451;DHT22;2238;50.180;9.230;2023-03-01T05:28:45;-1.10;99.90
4451;DHT22;2238;50.180;9.230;2023-03-01T05:31:45;-1.10;99.90
4451;DHT22;2238;50.180;9.230;2023-03-01T05:34:46;-1.00;99.90
4451;DHT22;2238;50.180;9.230;2023-03-01T05:37:47;-1.10;99.90
4451;DHT22;2238;50.180;9.230;2023-03-01T05:40:48;-1.00;99.90
4451;DHT22;2238;50.180;9.230;2023-03-01T05:43:49;-1.00;99.90
4451;DHT22;2238;50.180;9.230;2023-03-01T05:46:50;-0.90;99.90
4451;DHT22;2238;50.180;9.230;2023-03-01T05:49:50;-1.00;99.90
4451;DHT22;2238;50.180;9.230;2023-03-01T05:52:59;-1.00;99.90
4451;DHT22;2238;50.180;9.230;2023-03-01T05:56:03;-1.00;99.90
4451;DHT22;2238;50.180;9.230;2023-03-01T05:59:04;-0.70;99.90
4451;DHT22;2238;50.180;9.230;2023-03-01T06:02:08;-0.80;99.90
4451;DHT22;2238;50.180;9.230;2023-03-01T06:05:10;-0.90;99.90
4451;DHT22;2238;50.180;9.230;2023-03-01T06:08:11;-0.90;99.90
4451;DHT22;2238;50.180;9.230;2023-03-01T06:11:12;-0.90;99.90
4451;DHT22;2238;50.180;9.230;2023-03-01T06:14:13;-0.80;99.90
4451;DHT22;2238;50.180;9.230;2023-03-01T06:17:14;-0.90;99.90
4451;DHT22;2238;50.180;9.230;2023-03-01T06:20:20;-0.60;99.90
4451;DHT22;2238;50.180;9.230;2023-03-01T06:23:22;-0.60;99.90
4451;DHT22;2238;50.180;9.230;2023-03-01T06:26:23;-0.40;99.90
4451;DHT22;2238;50.180;9.230;2023-03-01T06:29:23;-0.70;99.90
4451;DHT22;2238;50.180;9.230;2023-03-01T06:32:24;-0.70;99.90
4451;DHT22;2238;50.180;9.230;2023-03-01T06:35:24;-0.60;99.90
4451;DHT22;2238;50.180;9.230;2023-03-01T06:38:30;-0.50;99.90
4451;DHT22;2238;50.180;9.230;2023-03-01T06:41:31;-0.60;99.90
4451;DHT22;2238;50.180;9.230;2023-03-01T06:44:31;-0.60;99.90
4451;DHT22;2238;50.180;9.230;2023-03-01T06:47:32;-0.60;99.90
4451;DHT22;2238;50.180;9.230;2023-03-01T06:50:34;-0.40;99.90
4451;DHT22;2238;50.180;9.230;2023-03-01T06:53:35;1.10;99.90
4451;DHT22;2238;50.180;9.230;2023-03-01T06:56:36;-0.50;99.90
4451;DHT22;2238;50.180;9.230;2023-03-01T06:59:36;-0.40;99.90
4451;DHT22;2238;50.180;9.230;2023-03-01T07:02:37;-0.40;99.90
4451;DHT22;2238;50.180;9.230;2023-03-01T07:05:37;-0.40;99.90
4451;DHT22;2238;50.180;9.230;2023-03-01T07:08:38;-0.30;99.90
4451;DHT22;2238;50.180;9.230;2023-03-01T07:11:38;-0.30;99.90
4451;DHT22;2238;50.180;9.230;2023-03-01T07:14:39;-0.20;99.90
4451;DHT22;2238;50.180;9.230;2023-03-01T07:17:40;-0.10;99.90
4451;DHT22;2238;50.180;9.230;2023-03-01T07:20:40;0.10;99.90
4451;DHT22;2238;50.180;9.230;2023-03-01T07:23:41;0.10;99.90
4451;DHT22;2238;50.180;9.230;2023-03-01T07:26:41;0.20;99.90
4451;DHT22;2238;50.180;9.230;2023-03-01T07:29:42;0.20;99.90
4451;DHT22;2238;50.180;9.230;2023-03-01T07:32:42;0.60;99.90
4451;DHT22;2238;50.180;9.230;2023-03-01T07:35:43;0.80;99.90
4451;DHT22;2238;50.180;9.230;2023-03-01T07:38:44;1.20;99.90
4451;DHT22;2238;50.180;9.230;2023-03-01T07:41:44;1.50;99.90
4451;DHT22;2238;50.180;9.230;2023-03-01T07:44:45;1.50;99.90
4451;DHT22;2238;50.180;9.230;2023-03-01T07:47:45;2.10;99.90
4451;DHT22;2238;50.180;9.230;2023-03-01T07:50:46;1.70;99.90
4451;DHT22;2238;50.180;9.230;2023-03-01T07:53:47;2.00;99.90
4451;DHT22;2238;50.180;9.230;2023-03-01T07:56:48;2.90;99.90
4451;DHT22;2238;50.180;9.230;2023-03-01T07:59:48;2.90;99.90
4451;DHT22;2238;50.180;9.230;2023-03-01T08:02:49;2.20;99.90
4451;DHT22;2238;50.180;9.230;2023-03-01T08:05:49;2.10;99.90
4451;DHT22;2238;50.180;9.230;2023-03-01T08:08:50;2.60;99.90
4451;DHT22;2238;50.180;9.230;2023-03-01T08:11:51;2.40;99.90
4451;DHT22;2238;50.180;9.230;2023-03-01T08:14:51;2.40;99.90
4451;DHT22;2238;50.180;9.230;2023-03-01T08:17:52;2.90;99.90
4451;DHT22;2238;50.180;9.230;2023-03-01T08:20:52;2.70;99.90
4451;DHT22;2238;50.180;9.230;2023-03-01T08:23:53;2.50;99.90
4451;DHT22;2238;50.180;9.230;2023-03-01T08:26:54;2.50;99.90
4451;DHT22;2238;50.180;9.230;2023-03-01T08:29:54;2.60;99.90
4451;DHT22;2238;50.180;9.230;2023-03-01T08:32:55;2.80;99.90
4451;DHT22;2238;50.180;9.230;2023-03-01T08:36:05;2.90;99.90
4451;DHT22;2238;50.180;9.230;2023-03-01T08:39:08;3.20;99.90
4451;DHT22;2238;50.180;9.230;2023-03-01T08:42:09;3.10;99.90
4451;DHT22;2238;50.180;9.230;2023-03-01T08:45:11;3.50;99.90
4451;DHT22;2238;50.180;9.230;2023-03-01T08:48:11;4.50;99.90
4451;DHT22;2238;50.180;9.230;2023-03-01T08:51:15;5.30;99.90
4451;DHT22;2238;50.180;9.230;2023-03-01T08:54:18;5.40;99.90
4451;DHT22;2238;50.180;9.230;2023-03-01T08:57:19;6.40;99.90
4451;DHT22;2238;50.180;9.230;2023-03-01T09:00:20;5.20;99.90
4451;DHT22;2238;50.180;9.230;2023-03-01T09:03:21;4.90;99.90
4451;DHT22;2238;50.180;9.230;2023-03-01T09:06:22;5.80;99.90
4451;DHT22;2238;50.180;9.230;2023-03-01T09:09:22;5.30;99.90
4451;DHT22;2238;50.180;9.230;2023-03-01T09:12:23;5.90;99.90
4451;DHT22;2238;50.180;9.230;2023-03-01T09:15:25;5.70;99.90
4451;DHT22;2238;50.180;9.230;2023-03-01T09:18:26;5.30;99.90
4451;DHT22;2238;50.180;9.230;2023-03-01T09:21:26;4.80;99.90
4451;DHT22;2238;50.180;9.230;2023-03-01T09:24:27;5.70;99.90
4451;DHT22;2238;50.180;9.230;2023-03-01T09:27:27;5.90;99.90
4451;DHT22;2238;50.180;9.230;2023-03-01T09:30:28;6.50;99.90
4451;DHT22;2238;50.180;9.230;2023-03-01T09:33:30;6.20;99.90
4451;DHT22;2238;50.180;9.230;2023-03-01T09:36:31;5.20;99.90
4451;DHT22;2238;50.180;9.230;2023-03-01T09:39:31;4.30;99.90
4451;DHT22;2238;50.180;9.230;2023-03-01T09:42:34;4.00;99.90
4451;DHT22;2238;50.180;9.230;2023-03-01T09:45:41;4.20;99.90
4451;DHT22;2238;50.180;9.230;2023-03-01T09:49:00;4.60;99.90
4451;DHT22;2238;50.180;9.230;2023-03-01T09:52:19;4.80;99.90
4451;DHT22;2238;50.180;9.230;2023-03-01T09:55:29;4.60;99.90
4451;DHT22;2238;50.180;9.230;2023-03-01T09:58:37;5.00;99.90
4451;DHT22;2238;50.180;9.230;2023-03-01T10:04:51;4.50;99.90
4451;DHT22;2238;50.180;9.230;2023-03-01T10:08:25;5.30;99.90
4451;DHT22;2238;50.180;9.230;2023-03-01T10:11:39;4.90;99.90
4451;DHT22;2238;50.180;9.230;2023-03-01T10:14:57;5.50;99.90
4451;DHT22;2238;50.180;9.230;2023-03-01T10:18:09;6.20;99.90
4451;DHT22;2238;50.180;9.230;2023-03-01T10:21:17;6.00;99.90
4451;DHT22;2238;50.180;9.230;2023-03-01T10:24:19;6.70;99.90
4451;DHT22;2238;50.180;9.230;2023-03-01T10:30:40;7.00;99.90
4451;DHT22;2238;50.180;9.230;2023-03-01T10:33:44;7.10;99.90
4451;DHT22;2238;50.180;9.230;2023-03-01T10:36:48;7.50;99.90
4451;DHT22;2238;50.180;9.230;2023-03-01T10:43:04;7.40;99.90
4451;DHT22;2238;50.180;9.230;2023-03-01T10:46:25;6.50;99.90
4451;DHT22;2238;50.180;9.230;2023-03-01T10:49:26;6.80;99.90
4451;DHT22;2238;50.180;9.230;2023-03-01T10:52:34;6.50;99.90
4451;DHT22;2238;50.180;9.230;2023-03-01T10:55:37;6.00;99.90
4451;DHT22;2238;50.180;9.230;2023-03-01T10:58:40;6.30;99.90
4451;DHT22;2238;50.180;9.230;2023-03-01T11:01:40;7.20;99.90
4451;DHT22;2238;50.180;9.230;2023-03-01T11:08:12;6.30;99.90
4451;DHT22;2238;50.180;9.230;2023-03-01T11:14:31;6.30;99.90
4451;DHT22;2238;50.180;9.230;2023-03-01T11:17:33;6.40;99.90
4451;DHT22;2238;50.180;9.230;2023-03-01T11:20:38;5.60;99.90
4451;DHT22;2238;50.180;9.230;2023-03-01T11:23:39;6.70;99.90
4451;DHT22;2238;50.180;9.230;2023-03-01T11:26:45;6.80;99.90
4451;DHT22;2238;50.180;9.230;2023-03-01T11:30:04;6.80;99.90
4451;DHT22;2238;50.180;9.230;2023-03-01T11:36:49;6.90;99.90
4451;DHT22;2238;50.180;9.230;2023-03-01T11:40:11;7.20;99.90
4451;DHT22;2238;50.180;9.230;2023-03-01T11:43:28;6.90;99.90
4451;DHT22;2238;50.180;9.230;2023-03-01T11:56:27;6.30;99.90
4451;DHT22;2238;50.180;9.230;2023-03-01T11:59:39;7.00;99.90
4451;DHT22;2238;50.180;9.230;2023-03-01T12:26:29;7.40;99.90
4451;DHT22;2238;50.180;9.230;2023-03-01T12:33:00;7.10;99.90
4451;DHT22;2238;50.180;9.230;2023-03-01T12:43:43;7.40;99.90
4451;DHT22;2238;50.180;9.230;2023-03-01T12:47:00;7.40;99.90
4451;DHT22;2238;50.180;9.230;2023-03-01T12:50:13;7.70;99.90
4451;DHT22;2238;50.180;9.230;2023-03-01T12:53:29;7.30;99.90
4451;DHT22;2238;50.180;9.230;2023-03-01T12:56:34;7.30;99.90
4451;DHT22;2238;50.180;9.230;2023-03-01T12:59:51;7.30;99.90
4451;DHT22;2238;50.180;9.230;2023-03-01T13:06:35;7.30;99.90
4451;DHT22;2238;50.180;9.230;2023-03-01T13:09:44;7.20;99.90
4451;DHT22;2238;50.180;9.230;2023-03-01T13:16:22;7.40;99.90
4451;DHT22;2238;50.180;9.230;2023-03-01T13:19:25;7.20;99.90
4451;DHT22;2238;50.180;9.230;2023-03-01T13:22:31;7.20;99.90
4451;DHT22;2238;50.180;9.230;2023-03-01T13:25:33;7.10;99.90
4451;DHT22;2238;50.180;9.230;2023-03-01T13:28:56;7.20;99.90
4451;DHT22;2238;50.180;9.230;2023-03-01T13:31:57;7.20;99.90
4451;DHT22;2238;50.180;9.230;2023-03-01T13:35:06;7.00;99.90
4451;DHT22;2238;50.180;9.230;2023-03-01T13:44:43;7.10;99.90
4451;DHT22;2238;50.180;9.230;2023-03-01T13:47:45;7.00;99.90
4451;DHT22;2238;50.180;9.230;2023-03-01T13:50:51;8.70;99.90
4451;DHT22;2238;50.180;9.230;2023-03-01T13:53:54;7.00;99.90
4451;DHT22;2238;50.180;9.230;2023-03-01T13:57:00;7.60;99.90
4451;DHT22;2238;50.180;9.230;2023-03-01T14:00:02;6.90;99.90
4451;DHT22;2238;50.180;9.230;2023-03-01T14:06:09;7.10;99.90
4451;DHT22;2238;50.180;9.230;2023-03-01T14:09:21;7.10;99.90
4451;DHT22;2238;50.180;9.230;2023-03-01T14:12:48;7.10;99.90
4451;DHT22;2238;50.180;9.230;2023-03-01T14:16:09;7.00;99.90
4451;DHT22;2238;50.180;9.230;2023-03-01T14:19:28;7.10;99.90
4451;DHT22;2238;50.180;9.230;2023-03-01T14:22:34;7.20;99.90
4451;DHT22;2238;50.180;9.230;2023-03-01T14:25:36;7.10;99.90
4451;DHT22;2238;50.180;9.230;2023-03-01T14:28:39;7.10;99.90
4451;DHT22;2238;50.180;9.230;2023-03-01T14:31:42;7.10;99.90
4451;DHT22;2238;50.180;9.230;2023-03-01T14:34:45;8.90;99.90
4451;DHT22;2238;50.180;9.230;2023-03-01T14:37:46;7.20;99.90
4451;DHT22;2238;50.180;9.230;2023-03-01T14:40:51;9.30;99.90
4451;DHT22;2238;50.180;9.230;2023-03-01T14:43:58;7.20;99.90
4451;DHT22;2238;50.180;9.230;2023-03-01T14:47:01;7.80;99.90
4451;DHT22;2238;50.180;9.230;2023-03-01T14:50:15;7.10;99.90
4451;DHT22;2238;50.180;9.230;2023-03-01T14:53:20;7.10;99.90
4451;DHT22;2238;50.180;9.230;2023-03-01T14:56:22;8.40;99.90
4451;DHT22;2238;50.180;9.230;2023-03-01T14:59:23;8.30;99.90
4451;DHT22;2238;50.180;9.230;2023-03-01T15:02:26;7.00;99.90
4451;DHT22;2238;50.180;9.230;2023-03-01T15:05:31;7.00;99.90
4451;DHT22;2238;50.180;9.230;2023-03-01T15:08:32;6.90;99.90
4451;DHT22;2238;50.180;9.230;2023-03-01T15:11:33;6.90;99.90
4451;DHT22;2238;50.180;9.230;2023-03-01T15:14:42;6.90;99.90
4451;DHT22;2238;50.180;9.230;2023-03-01T15:17:43;6.90;99.90
4451;DHT22;2238;50.180;9.230;2023-03-01T15:20:44;6.70;99.90
4451;DHT22;2238;50.180;9.230;2023-03-01T15:24:35;6.70;99.90
4451;DHT22;2238;50.180;9.230;2023-03-01T15:27:23;6.80;99.90
4451;DHT22;2238;50.180;9.230;2023-03-01T15:30:28;6.60;99.90
4451;DHT22;2238;50.180;9.230;2023-03-01T15:33:32;6.50;99.90
4451;DHT22;2238;50.180;9.230;2023-03-01T15:36:44;7.70;99.90
4451;DHT22;2238;50.180;9.230;2023-03-01T15:39:56;6.40;99.90
4451;DHT22;2238;50.180;9.230;2023-03-01T15:43:03;6.20;99.90
4451;DHT22;2238;50.180;9.230;2023-03-01T15:46:04;6.10;99.90
4451;DHT22;2238;50.180;9.230;2023-03-01T15:49:20;6.50;99.90
4451;DHT22;2238;50.180;9.230;2023-03-01T15:52:29;6.00;99.90
4451;DHT22;2238;50.180;9.230;2023-03-01T15:55:32;6.00;99.90
4451;DHT22;2238;50.180;9.230;2023-03-01T15:58:33;5.90;99.90
4451;DHT22;2238;50.180;9.230;2023-03-01T16:01:34;5.90;99.90
4451;DHT22;2238;50.180;9.230;2023-03-01T16:04:35;5.80;99.90
4451;DHT22;2238;50.180;9.230;2023-03-01T16:07:35;7.70;99.90
4451;DHT22;2238;50.180;9.230;2023-03-01T16:10:41;5.70;99.90
4451;DHT22;2238;50.180;9.230;2023-03-01T16:13:44;5.70;99.90
4451;DHT22;2238;50.180;9.230;2023-03-01T16:16:46;5.70;99.90
4451;DHT22;2238;50.180;9.230;2023-03-01T16:19:48;5.70;99.90
4451;DHT22;2238;50.180;9.230;2023-03-01T16:22:49;7.60;99.90
4451;DHT22;2238;50.180;9.230;2023-03-01T16:25:49;5.60;99.90
4451;DHT22;2238;50.180;9.230;2023-03-01T16:28:55;5.50;99.90
4451;DHT22;2238;50.180;9.230;2023-03-01T16:31:56;5.50;99.90
4451;DHT22;2238;50.180;9.230;2023-03-01T16:34:56;5.40;99.90
4451;DHT22;2238;50.180;9.230;2023-03-01T16:37:59;5.30;99.90
4451;DHT22;2238;50.180;9.230;2023-03-01T16:41:00;5.20;99.90
4451;DHT22;2238;50.180;9.230;2023-03-01T16:44:00;6.10;99.90
4451;DHT22;2238;50.180;9.230;2023-03-01T16:47:01;6.30;99.90
4451;DHT22;2238;50.180;9.230;2023-03-01T16:50:02;5.00;99.90
4451;DHT22;2238;50.180;9.230;2023-03-01T16:53:03;5.00;99.90
4451;DHT22;2238;50.180;9.230;2023-03-01T16:56:06;5.00;99.90
4451;DHT22;2238;50.180;9.230;2023-03-01T16:59:06;5.00;99.90
4451;DHT22;2238;50.180;9.230;2023-03-01T17:02:11;5.00;99.90
4451;DHT22;2238;50.180;9.230;2023-03-01T17:05:12;5.00;99.90
4451;DHT22;2238;50.180;9.230;2023-03-01T17:08:13;4.80;99.90
4451;DHT22;2238;50.180;9.230;2023-03-01T17:11:16;4.70;99.90
4451;DHT22;2238;50.180;9.230;2023-03-01T17:14:17;4.70;99.90
4451;DHT22;2238;50.180;9.230;2023-03-01T17:17:18;4.60;99.90
4451;DHT22;2238;50.180;9.230;2023-03-01T17:20:19;4.50;99.90
4451;DHT22;2238;50.180;9.230;2023-03-01T17:23:19;4.50;99.90
4451;DHT22;2238;50.180;9.230;2023-03-01T17:26:20;4.60;99.90
4451;DHT22;2238;50.180;9.230;2023-03-01T17:29:21;4.50;99.90
4451;DHT22;2238;50.180;9.230;2023-03-01T17:32:21;4.50;99.90
4451;DHT22;2238;50.180;9.230;2023-03-01T17:35:22;4.50;99.90
4451;DHT22;2238;50.180;9.230;2023-03-01T17:38:24;4.50;99.90
4451;DHT22;2238;50.180;9.230;2023-03-01T17:41:25;4.40;99.90
4451;DHT22;2238;50.180;9.230;2023-03-01T17:44:25;4.30;99.90
4451;DHT22;2238;50.180;9.230;2023-03-01T17:47:26;4.20;99.90
4451;DHT22;2238;50.180;9.230;2023-03-01T17:50:26;4.20;99.90
4451;DHT22;2238;50.180;9.230;2023-03-01T17:53:28;4.10;99.90
4451;DHT22;2238;50.180;9.230;2023-03-01T17:56:29;4.10;99.90
4451;DHT22;2238;50.180;9.230;2023-03-01T17:59:31;4.10;99.90
4451;DHT22;2238;50.180;9.230;2023-03-01T18:02:33;4.10;99.90
4451;DHT22;2238;50.180;9.230;2023-03-01T18:05:35;4.10;99.90
4451;DHT22;2238;50.180;9.230;2023-03-01T18:08:38;4.00;99.90
4451;DHT22;2238;50.180;9.230;2023-03-01T18:11:39;4.10;99.90
4451;DHT22;2238;50.180;9.230;2023-03-01T18:14:41;4.10;99.90
4451;DHT22;2238;50.180;9.230;2023-03-01T18:17:42;4.10;99.90
4451;DHT22;2238;50.180;9.230;2023-03-01T18:20:42;3.70;99.90
4451;DHT22;2238;50.180;9.230;2023-03-01T18:23:43;3.80;99.90
4451;DHT22;2238;50.180;9.230;2023-03-01T18:26:43;3.80;99.90
4451;DHT22;2238;50.180;9.230;2023-03-01T18:29:44;3.70;99.90
4451;DHT22;2238;50.180;9.230;2023-03-01T18:32:44;3.50;99.90
4451;DHT22;2238;50.180;9.230;2023-03-01T18:35:45;3.60;99.90
4451;DHT22;2238;50.180;9.230;2023-03-01T18:38:46;3.50;99.90
4451;DHT22;2238;50.180;9.230;2023-03-01T18:41:48;3.40;99.90
4451;DHT22;2238;50.180;9.230;2023-03-01T18:44:49;5.00;99.90
4451;DHT22;2238;50.180;9.230;2023-03-01T18:47:49;3.40;99.90
4451;DHT22;2238;50.180;9.230;2023-03-01T18:50:50;3.50;99.90
4451;DHT22;2238;50.180;9.230;2023-03-01T18:53:51;3.30;99.90
4451;DHT22;2238;50.180;9.230;2023-03-01T18:56:52;3.20;99.90
4451;DHT22;2238;50.180;9.230;2023-03-01T18:59:53;3.20;99.90
4451;DHT22;2238;50.180;9.230;2023-03-01T19:02:53;3.30;99.90
4451;DHT22;2238;50.180;9.230;2023-03-01T19:05:54;3.30;99.90
4451;DHT22;2238;50.180;9.230;2023-03-01T19:08:56;3.20;99.90
4451;DHT22;2238;50.180;9.230;2023-03-01T19:11:57;3.10;99.90
4451;DHT22;2238;50.180;9.230;2023-03-01T19:15:00;3.10;99.90
4451;DHT22;2238;50.180;9.230;2023-03-01T19:18:00;3.10;99.90
4451;DHT22;2238;50.180;9.230;2023-03-01T19:21:03;2.90;99.90
4451;DHT22;2238;50.180;9.230;2023-03-01T19:24:04;3.00;99.90
4451;DHT22;2238;50.180;9.230;2023-03-01T19:27:05;3.00;99.90
4451;DHT22;2238;50.180;9.230;2023-03-01T19:30:06;3.00;99.90
4451;DHT22;2238;50.180;9.230;2023-03-01T19:33:07;2.90;99.90
4451;DHT22;2238;50.180;9.230;2023-03-01T19:36:10;2.90;99.90
4451;DHT22;2238;50.180;9.230;2023-03-01T19:39:12;2.80;99.90
4451;DHT22;2238;50.180;9.230;2023-03-01T19:42:12;2.70;99.90
4451;DHT22;2238;50.180;9.230;2023-03-01T19:45:13;2.60;99.90
4451;DHT22;2238;50.180;9.230;2023-03-01T19:48:14;2.60;99.90
4451;DHT22;2238;50.180;9.230;2023-03-01T19:51:14;4.30;99.90
4451;DHT22;2238;50.180;9.230;2023-03-01T19:54:15;3.50;99.90
4451;DHT22;2238;50.180;9.230;2023-03-01T19:57:19;2.50;99.90
4451;DHT22;2238;50.180;9.230;2023-03-01T20:00:20;2.60;99.90
4451;DHT22;2238;50.180;9.230;2023-03-01T20:03:20;2.50;99.90
4451;DHT22;2238;50.180;9.230;2023-03-01T20:06:21;2.60;99.90
4451;DHT22;2238;50.180;9.230;2023-03-01T20:09:22;2.40;99.90
4451;DHT22;2238;50.180;9.230;2023-03-01T20:12:23;2.30;99.90
4451;DHT22;2238;50.180;9.230;2023-03-01T20:15:23;2.30;99.90
4451;DHT22;2238;50.180;9.230;2023-03-01T20:18:24;2.40;99.90
4451;DHT22;2238;50.180;9.230;2023-03-01T20:21:25;2.40;99.90
4451;DHT22;2238;50.180;9.230;2023-03-01T20:24:26;4.60;99.90
4451;DHT22;2238;50.180;9.230;2023-03-01T20:27:27;2.20;99.90
4451;DHT22;2238;50.180;9.230;2023-03-01T20:30:28;2.30;99.90
4451;DHT22;2238;50.180;9.230;2023-03-01T20:33:28;2.20;99.90
4451;DHT22;2238;50.180;9.230;2023-03-01T20:36:29;2.20;99.90
4451;DHT22;2238;50.180;9.230;2023-03-01T20:39:29;2.10;99.90
4451;DHT22;2238;50.180;9.230;2023-03-01T20:42:30;2.00;99.90
4451;DHT22;2238;50.180;9.230;2023-03-01T20:45:31;1.90;99.90
4451;DHT22;2238;50.180;9.230;2023-03-01T20:48:32;1.80;99.90
4451;DHT22;2238;50.180;9.230;2023-03-01T20:51:33;1.90;99.90
4451;DHT22;2238;50.180;9.230;2023-03-01T20:54:33;1.80;99.90
4451;DHT22;2238;50.180;9.230;2023-03-01T20:57:35;1.80;99.90
4451;DHT22;2238;50.180;9.230;2023-03-01T21:00:35;1.70;99.90
4451;DHT22;2238;50.180;9.230;2023-03-01T21:03:36;1.70;99.90
4451;DHT22;2238;50.180;9.230;2023-03-01T21:06:37;1.80;99.90
4451;DHT22;2238;50.180;9.230;2023-03-01T21:09:38;1.70;99.90
4451;DHT22;2238;50.180;9.230;2023-03-01T21:12:39;1.60;99.90
4451;DHT22;2238;50.180;9.230;2023-03-01T21:15:39;1.60;99.90
4451;DHT22;2238;50.180;9.230;2023-03-01T21:18:40;1.60;99.90
4451;DHT22;2238;50.180;9.230;2023-03-01T21:21:41;1.60;99.90
4451;DHT22;2238;50.180;9.230;2023-03-01T21:24:42;1.60;99.90
4451;DHT22;2238;50.180;9.230;2023-03-01T21:27:42;1.70;99.90
4451;DHT22;2238;50.180;9.230;2023-03-01T21:30:43;1.80;99.90
4451;DHT22;2238;50.180;9.230;2023-03-01T21:33:49;1.60;99.90
4451;DHT22;2238;50.180;9.230;2023-03-01T21:36:50;1.50;99.90
4451;DHT22;2238;50.180;9.230;2023-03-01T21:39:51;1.50;99.90
4451;DHT22;2238;50.180;9.230;2023-03-01T21:42:52;1.60;99.90